EA8CHC Sevilla ES current weather conditions

sailwx.info

Wind from 063 at 4 knots gusting 6

Air temperature 21.7° C
Dewpoint 14.8° C

Last reported at 2014-Oct-21 09:47 UTC.
Time now 2014-Oct-21 10:24 UTC

Location: N 37°26' W 006°03'.
View on Google Maps.

See reports from other nearby stations

  
Tides and Currents Weather Stations Pressure Air Temp Water Temp Dewpoint Dewpoint Depression Visibility Wind Speed Wind Dir Waves Ship Positions
date/time (UTC)wind fromknots sea level pressurealtimeterstation pressurevisibilityair tempwater tempwave heightnotes
2014-Oct-21 09:47 063 4 gusting 6 21.7
2014-Oct-21 09:42 051 4 gusting 8 21.7
2014-Oct-21 09:37 062 4 gusting 8 21.1
2014-Oct-21 09:32 068 4 gusting 6 21.1
2014-Oct-21 09:27 049 5 gusting 6 21.1
2014-Oct-21 09:22 082 4 gusting 6 21.1
2014-Oct-21 09:17 078 4 gusting 6 21.1
2014-Oct-21 09:12 079 3 gusting 6 20.6
2014-Oct-21 09:07 050 3 gusting 6 20.6
2014-Oct-21 09:02 076 1 gusting 6 20.6
2014-Oct-21 08:57 024 20.6
2014-Oct-21 08:52 026 0 gusting 3 20.0
2014-Oct-21 08:47 026 0 gusting 3 20.0
2014-Oct-21 08:42 028 1 gusting 3 19.4
2014-Oct-21 08:37 009 1 gusting 5 19.4
2014-Oct-21 08:32 057 0 gusting 5 19.4
2014-Oct-21 08:27 058 1 gusting 5 18.9
2014-Oct-21 08:22 061 1 gusting 4 18.9
2014-Oct-21 08:17 062 1 gusting 4 18.9
2014-Oct-21 08:12 063 1 gusting 4 18.3
2014-Oct-21 08:07 013 0 gusting 4 18.3
2014-Oct-21 08:02 325 0 gusting 4 18.3
2014-Oct-21 07:57 331 1 gusting 4 17.8
2014-Oct-21 07:52 005 1 gusting 4 17.8
2014-Oct-21 07:47 321 1 gusting 3 17.8
2014-Oct-21 07:42 345 0 gusting 3 17.8
2014-Oct-21 07:37 323 0 gusting 3 17.8
2014-Oct-21 07:32 317 0 gusting 2 17.8
2014-Oct-21 07:27 317 0 gusting 2 17.8
2014-Oct-21 07:22 317 17.8
2014-Oct-21 07:17 317 17.8
2014-Oct-21 07:12 317 17.8
2014-Oct-21 07:07 316 17.2
2014-Oct-21 07:02 316 17.8
2014-Oct-21 06:57 316 17.8
2014-Oct-21 06:52 316 17.8
2014-Oct-21 06:47 316 17.8
2014-Oct-21 06:42 316 17.8
2014-Oct-21 06:37 311 17.8
2014-Oct-21 06:32 311 17.2
2014-Oct-21 06:27 311 0 gusting 1 17.2
2014-Oct-21 06:22 311 0 gusting 2 17.2
2014-Oct-21 06:17 311 0 gusting 2 17.2
2014-Oct-21 06:12 311 0 gusting 2 17.2
2014-Oct-21 06:07 311 0 gusting 3 17.2
2014-Oct-21 06:02 311 1 gusting 3 17.2
2014-Oct-21 05:57 311 1 gusting 3 17.8
2014-Oct-21 05:52 302 0 gusting 1 17.8
2014-Oct-21 05:47 029 17.8
2014-Oct-21 05:42 030 17.8
2014-Oct-21 05:37 030 17.8
2014-Oct-21 05:32 030 17.8
2014-Oct-21 05:27 030 17.8
2014-Oct-21 05:22 030 18.3
2014-Oct-21 05:17 030 18.3
2014-Oct-21 05:12 030 18.3
2014-Oct-21 05:07 030 18.3
2014-Oct-21 05:02 030 18.3
2014-Oct-21 04:57 030 18.3
2014-Oct-21 04:52 030 18.3
2014-Oct-21 04:47 030 18.9
2014-Oct-21 04:42 030 18.9
2014-Oct-21 04:37 030 18.3
2014-Oct-21 04:32 030 18.3
2014-Oct-21 04:27 030 18.3
2014-Oct-21 04:22 030 18.9
2014-Oct-21 04:17 030 18.9
2014-Oct-21 04:12 030 18.9
2014-Oct-21 04:07 030 18.9
2014-Oct-21 04:02 030 18.9
2014-Oct-21 03:57 030 18.9
2014-Oct-21 03:52 009 18.9
2014-Oct-21 03:47 009 18.9
2014-Oct-21 03:42 009 0 gusting 2 18.9
2014-Oct-21 03:37 009 0 gusting 1 18.9
2014-Oct-21 03:32 277 19.4
2014-Oct-21 03:27 277 19.4
2014-Oct-21 03:22 277 19.4
2014-Oct-21 03:17 277 19.4
2014-Oct-21 03:12 277 19.4
2014-Oct-21 03:07 277 19.4
2014-Oct-21 03:02 277 19.4
2014-Oct-21 02:57 277 19.4
2014-Oct-21 02:52 277 19.4
2014-Oct-21 02:47 277 19.4
2014-Oct-21 02:42 277 19.4
2014-Oct-21 02:37 277 20.0
2014-Oct-21 02:32 277 20.0
2014-Oct-21 02:27 277 20.0
2014-Oct-21 02:22 277 20.0
2014-Oct-21 02:17 277 20.0
2014-Oct-21 02:12 277 20.0
2014-Oct-21 02:07 277 20.0
2014-Oct-21 02:02 277 19.4
2014-Oct-21 01:57 277 19.4
2014-Oct-21 01:52 277 19.4
2014-Oct-21 01:47 277 19.4
2014-Oct-21 01:42 277 19.4
2014-Oct-21 01:37 277 19.4
2014-Oct-21 01:32 277 19.4
2014-Oct-21 01:27 277 19.4
2014-Oct-21 01:22 277 19.4
2014-Oct-21 01:17 277 19.4
2014-Oct-21 01:12 277 19.4
2014-Oct-21 01:07 277 20.0
2014-Oct-21 01:02 277 20.0
2014-Oct-21 00:57 277 0 gusting 2 20.0
2014-Oct-21 00:52 277 0 gusting 2 20.0
2014-Oct-21 00:47 277 20.0
2014-Oct-21 00:42 277 20.0
2014-Oct-21 00:37 277 20.0
2014-Oct-21 00:32 277 20.0
2014-Oct-21 00:27 277 20.0
2014-Oct-21 00:22 277 20.0
2014-Oct-21 00:17 277 20.6
2014-Oct-21 00:12 277 20.6
2014-Oct-21 00:07 277 20.6
2014-Oct-21 00:02 277 21.1
2014-Oct-20 23:57 277 21.1
2014-Oct-20 23:52 277 21.7
2014-Oct-20 23:47 277 22.2
2014-Oct-20 23:42 277 22.2
2014-Oct-20 23:37 277 0 gusting 5 22.2
2014-Oct-20 23:32 277 1 gusting 5 22.2
2014-Oct-20 23:27 277 2 gusting 5 22.2
2014-Oct-20 23:22 283 3 gusting 4 22.2
2014-Oct-20 23:17 279 2 gusting 4 22.2
2014-Oct-20 23:12 279 3 gusting 5 21.7
2014-Oct-20 23:07 281 3 gusting 5 21.7
2014-Oct-20 23:02 276 3 gusting 5 21.7
2014-Oct-20 22:57 286 3 gusting 5 21.1
2014-Oct-20 22:52 285 2 gusting 5 21.1
2014-Oct-20 22:47 296 3 gusting 5 21.1
2014-Oct-20 22:42 298 3 gusting 5 21.7
2014-Oct-20 22:37 295 2 gusting 4 21.7
2014-Oct-20 22:32 295 3 gusting 4 22.2
2014-Oct-20 22:27 305 2 gusting 4 22.8
2014-Oct-20 22:22 316 1 gusting 2 22.8
2014-Oct-20 22:17 303 1 gusting 2 23.3
2014-Oct-20 22:12 301 1 gusting 2 23.3
2014-Oct-20 22:07 301 1 gusting 2 23.3
2014-Oct-20 22:02 301 1 gusting 2 23.3
2014-Oct-20 21:57 301 0 gusting 2 23.3
2014-Oct-20 21:52 301 0 gusting 2 23.3
2014-Oct-20 21:47 301 1 gusting 2 23.3
2014-Oct-20 21:42 301 1 gusting 2 23.3
2014-Oct-20 21:37 301 0 gusting 2 23.3
2014-Oct-20 21:32 307 23.3
2014-Oct-20 21:27 308 23.3
2014-Oct-20 21:22 308 23.3
2014-Oct-20 21:17 308 23.9
2014-Oct-20 21:12 308 23.9
2014-Oct-20 21:07 308 23.9
2014-Oct-20 21:02 308 0 gusting 3 23.9
2014-Oct-20 20:57 308 1 gusting 3 23.9
2014-Oct-20 20:52 305 2 gusting 3 23.9
2014-Oct-20 20:47 302 2 gusting 3 23.9
2014-Oct-20 20:42 299 2 gusting 3 23.9
2014-Oct-20 20:37 313 0 gusting 3 24.4
2014-Oct-20 20:32 304 24.4
2014-Oct-20 20:27 316 24.4
2014-Oct-20 20:22 316 25.0
2014-Oct-20 20:17 316 25.0
2014-Oct-20 20:12 316 0 gusting 2 25.6
2014-Oct-20 20:07 316 0 gusting 2 25.6
2014-Oct-20 20:02 316 25.6
2014-Oct-20 19:57 309 25.6
2014-Oct-20 19:52 309 25.6
2014-Oct-20 19:47 309 25.6
2014-Oct-20 19:42 309 0 gusting 2 25.6
2014-Oct-20 19:37 309 0 gusting 2 25.0
2014-Oct-20 19:32 309 0 gusting 2 25.0
2014-Oct-20 19:27 309 0 gusting 2 25.6
2014-Oct-20 19:22 310 0 gusting 2 25.6
2014-Oct-20 19:17 310 25.6
2014-Oct-20 19:12 312 26.1
2014-Oct-20 19:07 238 26.7
2014-Oct-20 19:02 238 27.2
2014-Oct-20 18:57 235 27.2
2014-Oct-20 18:52 236 0 gusting 2 27.8
2014-Oct-20 18:47 235 0 gusting 2 27.8
2014-Oct-20 18:42 235 27.8
2014-Oct-20 18:37 235 27.8
2014-Oct-20 18:32 235 27.8
2014-Oct-20 18:27 235 0 gusting 2 28.3
2014-Oct-20 18:22 235 1 gusting 2 28.3
2014-Oct-20 18:17 234 1 gusting 2 28.3
2014-Oct-20 18:12 234 1 gusting 2 28.3
2014-Oct-20 18:07 234 1 gusting 2 28.3
2014-Oct-20 18:02 234 1 gusting 2 28.3
2014-Oct-20 17:57 234 1 gusting 2 28.3
2014-Oct-20 17:52 234 1 gusting 3 28.3
2014-Oct-20 17:47 234 1 gusting 3 28.3
2014-Oct-20 17:42 234 1 gusting 3 28.3
2014-Oct-20 17:37 232 0 gusting 3 28.9
2014-Oct-20 17:32 055 1 gusting 2 28.9
2014-Oct-20 17:27 055 1 gusting 2 29.4
2014-Oct-20 17:22 055 1 gusting 2 29.4
2014-Oct-20 17:17 055 0 30.0
2014-Oct-20 17:12 055 30.6
2014-Oct-20 17:07 055 30.6
2014-Oct-20 17:02 055 31.1
2014-Oct-20 16:57 055 31.1
2014-Oct-20 16:52 055 31.1
2014-Oct-20 16:47 055 31.7
2014-Oct-20 16:42 055 31.7
2014-Oct-20 16:37 055 31.7
2014-Oct-20 16:32 055 31.7
2014-Oct-20 16:27 055 31.7
2014-Oct-20 16:22 055 31.7
2014-Oct-20 16:17 055 31.7
2014-Oct-20 16:12 055 31.7
2014-Oct-20 16:07 055 31.7
2014-Oct-20 16:02 055 31.7
2014-Oct-20 15:57 055 31.7
2014-Oct-20 15:52 055 31.7
2014-Oct-20 15:47 055 31.7
2014-Oct-20 15:42 055 31.1
2014-Oct-20 15:37 055 31.1
2014-Oct-20 15:32 055 31.1
2014-Oct-20 15:27 055 31.1
2014-Oct-20 15:22 055 31.1
2014-Oct-20 15:17 055 31.1
2014-Oct-20 15:12 055 30.6
2014-Oct-20 15:07 055 30.6
2014-Oct-20 15:02 055 30.6
2014-Oct-20 14:57 055 30.6
2014-Oct-20 14:52 034 30.6
2014-Oct-20 14:47 017 30.6
2014-Oct-20 14:42 016 0 gusting 3 30.6
2014-Oct-20 14:37 069 0 gusting 3 30.6
2014-Oct-20 14:32 053 0 gusting 3 30.6
2014-Oct-20 14:27 063 0 gusting 3 30.6
2014-Oct-20 14:22 071 0 gusting 3 30.0
2014-Oct-20 14:17 068 0 gusting 3 30.0
2014-Oct-20 14:12 051 0 gusting 3 30.0
2014-Oct-20 14:07 033 0 gusting 3 30.0
2014-Oct-20 14:02 021 0 gusting 4 30.0
2014-Oct-20 13:57 048 1 gusting 4 30.0
2014-Oct-20 13:52 059 1 gusting 4 30.0
2014-Oct-20 13:47 097 0 gusting 4 30.0
2014-Oct-20 13:42 037 0 gusting 5 29.4
2014-Oct-20 13:37 063 1 gusting 5 29.4
2014-Oct-20 13:32 053 1 gusting 5 29.4
2014-Oct-20 13:27 056 2 gusting 5 28.9
2014-Oct-20 13:22 074 2 gusting 5 28.9
2014-Oct-20 13:17 080 3 gusting 5 28.9
2014-Oct-20 13:12 057 3 gusting 5 28.9
2014-Oct-20 13:07 061 3 gusting 5 28.3
2014-Oct-20 13:02 052 3 gusting 5 28.3
2014-Oct-20 12:57 086 2 gusting 5 28.3
2014-Oct-20 12:52 061 2 gusting 6 28.3
2014-Oct-20 12:47 051 3 gusting 6 27.8
2014-Oct-20 12:42 051 2 gusting 6 27.8
2014-Oct-20 12:37 046 2 gusting 6 27.8
2014-Oct-20 12:32 074 2 gusting 6 27.8
2014-Oct-20 12:27 021 1 gusting 4 27.8
2014-Oct-20 12:22 060 1 gusting 4 27.8
2014-Oct-20 12:17 025 1 gusting 4 27.2
2014-Oct-20 12:12 076 1 gusting 4 27.2
2014-Oct-20 12:07 064 1 gusting 4 27.2
2014-Oct-20 12:02 043 1 gusting 6 26.7
2014-Oct-20 11:57 015 1 gusting 6 26.7
2014-Oct-20 11:52 050 1 gusting 6 26.7
2014-Oct-20 11:47 059 2 gusting 4 26.1
2014-Oct-20 11:42 074 1 gusting 4 26.1
2014-Oct-20 11:37 067 1 gusting 3 26.1
2014-Oct-20 11:32 069 1 gusting 4 26.1
2014-Oct-20 11:27 064 1 gusting 4 25.6
2014-Oct-20 11:22 057 1 gusting 6 25.6
2014-Oct-20 11:17 051 1 gusting 6 25.6
2014-Oct-20 11:12 065 1 gusting 6 25.6
2014-Oct-20 11:07 078 1 gusting 6 25.6
2014-Oct-20 11:02 061 2 gusting 6 25.6
2014-Oct-20 10:57 051 2 gusting 6 25.6
2014-Oct-20 10:52 078 2 gusting 5 25.0
2014-Oct-20 10:47 069 2 gusting 6 25.0
2014-Oct-20 10:42 078 3 gusting 7 25.0
2014-Oct-20 10:37 092 3 gusting 7 25.0
2014-Oct-20 10:32 065 3 gusting 8 24.4
2014-Oct-20 10:27 072 3 gusting 8 24.4
2014-Oct-20 10:22 087 4 gusting 6 24.4
2014-Oct-20 10:17 053 4 gusting 7 24.4
2014-Oct-20 10:12 096 3 gusting 9 24.4
2014-Oct-20 10:07 085 4 gusting 9 23.9
2014-Oct-20 10:02 071 5 gusting 11 23.9
2014-Oct-20 09:57 059 6 gusting 11 23.9
2014-Oct-20 09:52 057 5 gusting 8 23.3
2014-Oct-20 09:47 050 4 gusting 9 23.3
2014-Oct-20 09:42 063 4 gusting 9 23.3
2014-Oct-20 09:37 044 4 gusting 9 23.3
2014-Oct-20 09:32 059 4 gusting 6 23.3
2014-Oct-20 09:27 062 4 gusting 6 23.3
2014-Oct-20 09:22 073 3 gusting 6 22.8
2014-Oct-20 09:17 053 3 gusting 8 22.8
2014-Oct-20 09:12 049 3 gusting 8 22.8
2014-Oct-20 09:07 096 3 gusting 8 22.2
2014-Oct-20 09:02 068 2 gusting 6 22.2
2014-Oct-20 08:57 068 1 gusting 4 22.2
2014-Oct-20 08:52 067 1 gusting 4 21.7
2014-Oct-20 08:47 080 1 gusting 4 21.7
2014-Oct-20 08:42 055 0 gusting 5 21.7
2014-Oct-20 08:37 047 0 gusting 6 21.7
2014-Oct-20 08:32 084 1 gusting 6 21.1
2014-Oct-20 08:27 051 0 gusting 6 21.1
2014-Oct-20 08:22 059 0 gusting 4 21.1
2014-Oct-20 08:17 049 0 gusting 4 20.6
2014-Oct-20 08:12 053 0 gusting 3 20.6
2014-Oct-20 08:07 061 0 gusting 3 20.6
2014-Oct-20 08:02 019 0 gusting 3 20.6
2014-Oct-20 07:57 065 0 gusting 2 20.0
2014-Oct-20 07:52 017 20.0
2014-Oct-20 07:47 017 20.0
2014-Oct-20 07:42 017 0 gusting 2 20.0
2014-Oct-20 07:37 017 0 gusting 3 19.4
2014-Oct-20 07:32 015 0 gusting 3 19.4
2014-Oct-20 07:27 015 1 gusting 3 19.4
2014-Oct-20 07:22 015 0 gusting 3 19.4
2014-Oct-20 07:17 016 0 gusting 2 19.4
2014-Oct-20 07:12 016 0 gusting 2 19.4
2014-Oct-20 07:07 016 0 gusting 2 19.4
2014-Oct-20 07:02 017 0 gusting 3 19.4
2014-Oct-20 06:57 017 0 gusting 3 19.4
2014-Oct-20 06:52 017 0 gusting 3 19.4
2014-Oct-20 06:47 011 19.4
2014-Oct-20 06:42 328 19.4
2014-Oct-20 06:37 328 1 gusting 4 19.4
2014-Oct-20 06:32 318 2 gusting 4 19.4
2014-Oct-20 06:27 315 2 gusting 3 19.4
2014-Oct-20 06:22 318 1 gusting 2 19.4
2014-Oct-20 06:17 336 1 gusting 4 19.4
2014-Oct-20 06:12 336 1 gusting 4 19.4
2014-Oct-20 06:07 338 2 gusting 4 19.4
2014-Oct-20 06:02 292 2 gusting 4 19.4
2014-Oct-20 05:57 281 2 gusting 4 20.0
2014-Oct-20 05:52 280 1 gusting 3 20.0
2014-Oct-20 05:47 292 0 gusting 1 20.0
2014-Oct-20 05:42 024 20.0
2014-Oct-20 05:37 024 0 gusting 2 20.0
2014-Oct-20 05:32 024 20.0
2014-Oct-20 05:27 026 20.0
2014-Oct-20 05:22 273 20.0
2014-Oct-20 05:17 273 0 gusting 4 20.0
2014-Oct-20 05:12 273 1 gusting 2 20.0
2014-Oct-20 05:07 263 0 gusting 2 20.0
2014-Oct-20 05:02 294 20.0
2014-Oct-20 04:57 038 0 gusting 5 20.6
2014-Oct-20 04:52 039 0 gusting 3 20.6
2014-Oct-20 04:47 036 0 gusting 3 20.0
2014-Oct-20 04:42 055 0 gusting 2 20.0
2014-Oct-20 04:37 027 20.0
2014-Oct-20 04:32 20.6
2014-Oct-20 04:27 042 0 gusting 4 20.6
2014-Oct-20 04:22 038 0 gusting 4 20.6
2014-Oct-20 04:17 073 0 gusting 4 20.6
2014-Oct-20 04:12 067 0 gusting 4 20.6
2014-Oct-20 04:07 091 0 gusting 4 20.6
2014-Oct-20 04:02 083 1 gusting 4 20.6
2014-Oct-20 03:57 091 0 gusting 4 20.6
2014-Oct-20 03:52 104 0 gusting 3 20.0
2014-Oct-20 03:47 113 20.0
2014-Oct-20 03:42 069 20.0
2014-Oct-20 03:37 069 20.0
2014-Oct-20 03:32 068 20.0
2014-Oct-20 03:27 138 20.0
2014-Oct-20 03:22 138 20.0
2014-Oct-20 03:17 103 20.0
2014-Oct-20 03:12 103 20.0
2014-Oct-20 03:07 103 20.0
2014-Oct-20 03:02 086 0 gusting 4 20.0
2014-Oct-20 02:57 086 0 gusting 4 20.0
2014-Oct-20 02:52 067 20.0
2014-Oct-20 02:47 057 0 gusting 4 20.0
2014-Oct-20 02:42 057 1 gusting 4 20.0
2014-Oct-20 02:37 060 1 gusting 4 20.0
2014-Oct-20 02:32 055 1 gusting 4 20.0
2014-Oct-20 02:27 052 1 gusting 4 20.0
2014-Oct-20 02:22 040 1 gusting 3 20.0
2014-Oct-20 02:17 060 0 gusting 3 20.0
2014-Oct-20 02:12 026 20.0
2014-Oct-20 02:07 022 20.0
2014-Oct-20 02:02 022 0 gusting 2 20.0
2014-Oct-20 01:57 022 0 gusting 2 20.0
2014-Oct-20 01:52 022 0 gusting 2 20.0
2014-Oct-20 01:47 022 0 gusting 2 20.0
2014-Oct-20 01:42 022 20.0
2014-Oct-20 01:37 022 20.0
2014-Oct-20 01:32 022 20.0
2014-Oct-20 01:27 024 20.0
2014-Oct-20 01:22 024 20.0
2014-Oct-20 01:17 024 0 gusting 3 20.0
2014-Oct-20 01:12 024 0 gusting 3 19.4
2014-Oct-20 01:07 017 19.4
2014-Oct-20 01:02 017 19.4
2014-Oct-20 00:57 281 0 gusting 3 19.4
2014-Oct-20 00:52 284 0 gusting 3 19.4
2014-Oct-20 00:47 281 1 gusting 4 19.4
2014-Oct-20 00:42 284 2 gusting 4 20.0
2014-Oct-20 00:37 268 2 gusting 4 20.0
2014-Oct-20 00:32 277 1 gusting 6 20.6
2014-Oct-20 00:27 034 1 gusting 6 20.6
2014-Oct-20 00:22 061 1 gusting 6 20.6
2014-Oct-20 00:17 009 20.6
2014-Oct-20 00:12 355 20.6
2014-Oct-20 00:07 355 20.6
2014-Oct-20 00:02 355 21.1
2014-Oct-19 23:57 355 21.1
2014-Oct-19 23:52 355 0 gusting 2 21.1
2014-Oct-19 23:47 355 1 gusting 2 21.1
2014-Oct-19 23:42 355 1 gusting 3 21.7
2014-Oct-19 23:37 355 1 gusting 3 21.7
2014-Oct-19 23:32 355 0 gusting 2 21.7
2014-Oct-19 23:27 344 0 gusting 4 21.7
2014-Oct-19 23:22 303 1 gusting 4 21.7
2014-Oct-19 23:17 290 2 gusting 4 21.7
2014-Oct-19 23:12 303 2 gusting 4 21.7
2014-Oct-19 23:07 283 1 gusting 2 21.7
2014-Oct-19 23:02 289 1 gusting 3 21.7
2014-Oct-19 22:57 289 1 gusting 4 21.7
2014-Oct-19 22:52 289 1 gusting 4 21.7
2014-Oct-19 22:47 288 2 gusting 4 21.7
2014-Oct-19 22:42 290 2 gusting 5 21.7
2014-Oct-19 22:37 288 3 gusting 5 21.7
2014-Oct-19 22:32 304 2 gusting 5 21.7
2014-Oct-19 22:27 296 3 gusting 5 22.2
2014-Oct-19 22:22 275 3 gusting 5 22.2
2014-Oct-19 22:17 275 3 gusting 5 22.2
2014-Oct-19 22:12 278 2 gusting 4 22.2
2014-Oct-19 22:07 274 2 gusting 4 22.2
2014-Oct-19 22:02 284 2 gusting 4 21.7
2014-Oct-19 21:57 286 3 gusting 4 21.7
2014-Oct-19 21:52 287 3 gusting 5 21.7
2014-Oct-19 21:47 285 3 gusting 5 21.7
2014-Oct-19 21:42 296 2 gusting 5 21.7
2014-Oct-19 21:37 297 2 gusting 4 21.7
2014-Oct-19 21:32 270 2 gusting 4 21.7
2014-Oct-19 21:27 269 3 gusting 5 21.7
2014-Oct-19 21:22 265 3 gusting 5 21.7
2014-Oct-19 21:17 273 3 gusting 5 21.7
2014-Oct-19 21:12 277 3 gusting 5 21.7
2014-Oct-19 21:07 286 3 gusting 5 21.7
2014-Oct-19 21:02 292 2 gusting 4 22.2
2014-Oct-19 20:57 274 2 gusting 4 22.2
2014-Oct-19 20:52 274 2 gusting 4 22.8
2014-Oct-19 20:47 283 2 gusting 3 22.8
2014-Oct-19 20:42 280 0 gusting 2 23.3
2014-Oct-19 20:37 272 23.3
2014-Oct-19 20:32 270 0 gusting 3 23.3
2014-Oct-19 20:27 270 0 gusting 3 23.3
2014-Oct-19 20:22 270 0 gusting 3 23.3
2014-Oct-19 20:17 061 23.9
2014-Oct-19 20:12 061 23.9
2014-Oct-19 20:07 061 23.9
2014-Oct-19 20:02 061 23.9
2014-Oct-19 19:57 061 23.9
2014-Oct-19 19:52 061 23.9
2014-Oct-19 19:47 061 23.9
2014-Oct-19 19:42 061 0 gusting 3 23.9
2014-Oct-19 19:37 061 1 gusting 3 23.9
2014-Oct-19 19:32 061 1 gusting 2 24.4
2014-Oct-19 19:27 064 0 gusting 2 24.4
2014-Oct-19 19:22 042 0 gusting 2 24.4
2014-Oct-19 19:17 042 0 gusting 2 24.4
2014-Oct-19 19:12 042 24.4
2014-Oct-19 19:07 042 0 gusting 3 24.4
2014-Oct-19 19:02 042 0 gusting 3 24.4
2014-Oct-19 18:57 038 1 gusting 3 24.4
2014-Oct-19 18:52 051 0 gusting 2 24.4
2014-Oct-19 18:47 031 0 gusting 2 25.0
2014-Oct-19 18:42 015 25.0
2014-Oct-19 18:37 266 0 gusting 2 25.0
2014-Oct-19 18:32 266 0 gusting 2 25.0
2014-Oct-19 18:27 266 1 gusting 3 25.0
2014-Oct-19 18:22 265 1 gusting 3 25.6
2014-Oct-19 18:17 259 0 gusting 3 25.6
2014-Oct-19 18:12 020 0 gusting 3 25.6
2014-Oct-19 18:07 020 1 gusting 3 25.6
2014-Oct-19 18:02 022 1 gusting 3 26.1
2014-Oct-19 17:57 031 1 gusting 3 26.1
2014-Oct-19 17:52 042 1 gusting 3 26.1
2014-Oct-19 17:47 022 1 gusting 3 26.7
2014-Oct-19 17:42 024 1 gusting 3 26.7
2014-Oct-19 17:37 037 1 gusting 3 26.7
2014-Oct-19 17:32 042 1 gusting 5 26.7
2014-Oct-19 17:27 050 2 gusting 5 27.2
2014-Oct-19 17:22 048 2 gusting 5 27.2
2014-Oct-19 17:17 005 2 gusting 5 27.8
2014-Oct-19 17:12 026 2 gusting 6 27.8
2014-Oct-19 17:07 028 2 gusting 6 28.3
2014-Oct-19 17:02 042 1 gusting 6 28.3
2014-Oct-19 16:57 015 1 gusting 5 28.9
2014-Oct-19 16:52 050 2 gusting 6 28.9
2014-Oct-19 16:47 045 3 gusting 6 28.9
2014-Oct-19 16:42 059 3 gusting 6 29.4
2014-Oct-19 16:37 058 3 gusting 6 29.4
2014-Oct-19 16:32 062 3 gusting 6 29.4
2014-Oct-19 16:27 053 4 gusting 6 29.4
2014-Oct-19 16:22 053 3 gusting 6 29.4
2014-Oct-19 16:17 051 3 gusting 7 30.0
2014-Oct-19 16:12 059 4 gusting 8 30.0
2014-Oct-19 16:07 061 4 gusting 9 30.0
2014-Oct-19 16:02 052 4 gusting 9 30.0
2014-Oct-19 15:57 062 5 gusting 9 30.0
2014-Oct-19 15:52 051 5 gusting 8 30.0
2014-Oct-19 15:47 061 4 gusting 6 30.0
2014-Oct-19 15:42 058 4 gusting 6 29.4
2014-Oct-19 15:37 024 4 gusting 6 29.4
2014-Oct-19 15:32 065 5 gusting 9 29.4
2014-Oct-19 15:27 071 4 gusting 9 29.4
2014-Oct-19 15:22 060 3 gusting 9 29.4
2014-Oct-19 15:17 047 4 gusting 6 29.4
2014-Oct-19 15:12 058 3 gusting 6 28.9
2014-Oct-19 15:07 057 2 gusting 6 28.9
2014-Oct-19 15:02 058 2 gusting 6 28.9
2014-Oct-19 14:57 018 3 gusting 6 29.4
2014-Oct-19 14:52 057 3 gusting 6 29.4
2014-Oct-19 14:47 037 3 gusting 6 29.4
2014-Oct-19 14:42 027 3 gusting 6 28.9
2014-Oct-19 14:37 013 3 gusting 7 28.9
2014-Oct-19 14:32 037 3 gusting 7 28.9
2014-Oct-19 14:27 037 2 gusting 7 28.9
2014-Oct-19 14:22 024 2 gusting 5 28.9
2014-Oct-19 14:17 011 2 gusting 5 28.9
2014-Oct-19 14:12 013 1 gusting 6 28.9
2014-Oct-19 14:07 023 2 gusting 6 28.9
2014-Oct-19 14:02 022 2 gusting 6 28.3
2014-Oct-19 13:57 031 3 gusting 6 28.3
2014-Oct-19 13:52 043 3 gusting 7 28.3
2014-Oct-19 13:47 058 3 gusting 7 28.3
2014-Oct-19 13:42 022 4 gusting 7 28.3
2014-Oct-19 13:37 036 4 gusting 6 28.3
2014-Oct-19 13:32 032 3 gusting 6 28.3
2014-Oct-19 13:27 058 3 gusting 6 28.3
2014-Oct-19 13:22 051 4 gusting 8 27.8
2014-Oct-19 13:17 066 5 gusting 9 27.8
2014-Oct-19 13:12 049 5 gusting 9 27.8
2014-Oct-19 13:07 053 5 gusting 9 27.8
2014-Oct-19 13:02 058 5 gusting 8 27.8
2014-Oct-19 12:57 084 5 gusting 8 27.8
2014-Oct-19 12:52 065 4 gusting 8 27.8
2014-Oct-19 12:47 076 4 gusting 8 27.2
2014-Oct-19 12:42 042 4 gusting 8 26.7
2014-Oct-19 12:37 045 4 gusting 8 26.7
2014-Oct-19 12:32 031 4 gusting 8 26.7
2014-Oct-19 12:27 053 3 gusting 6 26.7
2014-Oct-19 12:22 041 3 gusting 6 26.7
2014-Oct-19 12:17 056 4 gusting 6 26.1
2014-Oct-19 12:12 062 4 gusting 9 26.1
2014-Oct-19 12:07 036 5 gusting 9 26.1
2014-Oct-19 12:02 049 6 gusting 10 26.1
2014-Oct-19 11:57 070 6 gusting 10 26.1
2014-Oct-19 11:52 059 5 gusting 10 26.1
2014-Oct-19 11:47 061 5 gusting 6 25.6
2014-Oct-19 11:42 102 4 gusting 6 25.6
2014-Oct-19 11:37 045 4 gusting 8 25.6
2014-Oct-19 11:32 082 4 gusting 8 25.6
2014-Oct-19 11:27 085 4 gusting 8 25.6
2014-Oct-19 11:22 035 4 gusting 8 25.6
2014-Oct-19 11:17 056 4 gusting 6 25.0
2014-Oct-19 11:12 047 3 gusting 7 25.0
2014-Oct-19 11:07 065 3 gusting 8 25.6
2014-Oct-19 11:02 055 3 gusting 8 25.0
2014-Oct-19 10:57 054 3 gusting 8 25.0
2014-Oct-19 10:52 057 4 gusting 8 24.4
2014-Oct-19 10:47 061 4 gusting 8 24.4
2014-Oct-19 10:42 055 4 gusting 8 24.4
2014-Oct-19 10:37 053 3 gusting 8 24.4
2014-Oct-19 10:32 066 4 gusting 8 24.4
2014-Oct-19 10:27 087 5 gusting 8 23.9
2014-Oct-19 10:22 089 5 gusting 7 23.9
2014-Oct-19 10:17 088 4 gusting 10 23.3